createdAt,value
2018-10-16T00:00:31.732Z,20.60
2018-10-16T00:05:35.123Z,19.33
2018-10-16T00:10:40.333Z,22.70
2018-10-16T00:15:43.801Z,21.63
2018-10-16T00:20:47.191Z,21.47
2018-10-16T00:25:50.581Z,23.90
2018-10-16T00:30:53.964Z,19.33
2018-10-16T00:35:57.350Z,22.63
2018-10-16T00:41:00.719Z,19.40
2018-10-16T00:46:04.103Z,24.97
2018-10-16T00:51:07.496Z,23.40
2018-10-16T00:56:10.875Z,21.63
2018-10-16T01:01:14.244Z,23.63
2018-10-16T01:06:17.631Z,20.57
2018-10-16T01:11:21.053Z,27.70
2018-10-16T01:16:24.514Z,24.30
2018-10-16T01:21:27.887Z,22.57
2018-10-16T01:26:31.255Z,19.07
2018-10-16T01:31:34.639Z,22.67
2018-10-16T01:36:38.040Z,21.73
2018-10-16T01:41:41.459Z,22.20
2018-10-16T01:46:44.835Z,28.63
2018-10-16T01:51:48.204Z,17.37
2018-10-16T01:56:51.591Z,25.53
2018-10-16T02:01:54.966Z,21.47
2018-10-16T02:06:58.386Z,23.57
2018-10-16T02:12:01.761Z,23.43
2018-10-16T02:17:05.561Z,21.33
2018-10-16T02:22:08.952Z,24.43
2018-10-16T02:27:12.331Z,23.97
2018-10-16T02:32:15.697Z,22.17
2018-10-16T02:37:19.093Z,24.97
2018-10-16T02:42:22.507Z,20.60
2018-10-16T02:47:25.983Z,22.97
2018-10-16T02:52:29.375Z,20.67
2018-10-16T02:57:32.784Z,30.30
2018-10-16T03:02:36.169Z,21.80
2018-10-16T03:07:39.619Z,22.13
2018-10-16T03:12:43.023Z,19.63
2018-10-16T03:17:46.414Z,21.60
2018-10-16T03:22:49.869Z,24.23
2018-10-16T03:27:53.278Z,25.10
2018-10-16T03:32:56.735Z,20.57
2018-10-16T03:38:00.110Z,24.93
2018-10-16T03:43:03.523Z,26.67
2018-10-16T03:48:06.911Z,24.47
2018-10-16T03:53:10.291Z,26.50
2018-10-16T03:58:13.683Z,25.77
2018-10-16T04:03:17.073Z,23.57
2018-10-16T04:08:20.443Z,17.77
2018-10-16T04:13:23.845Z,23.47
2018-10-16T04:18:27.227Z,23.47
2018-10-16T04:23:30.622Z,25.13
2018-10-16T04:28:34.051Z,25.72
2018-10-16T04:33:37.791Z,27.32
2018-10-16T04:38:41.168Z,21.83
2018-10-16T04:43:44.592Z,26.13
2018-10-16T04:48:48.016Z,25.17
2018-10-16T04:53:51.565Z,22.73
2018-10-16T04:58:55.045Z,19.87
2018-10-16T05:03:58.526Z,22.53
2018-10-16T05:09:01.919Z,26.20
2018-10-16T05:14:05.307Z,26.70
2018-10-16T05:19:08.770Z,24.33
2018-10-16T05:24:12.262Z,26.13
2018-10-16T05:29:15.685Z,25.77
2018-10-16T05:34:19.066Z,26.37
2018-10-16T05:39:22.511Z,28.97
2018-10-16T05:44:25.916Z,23.20
2018-10-16T05:49:29.400Z,23.80
2018-10-16T05:54:32.779Z,30.43
2018-10-16T05:59:36.214Z,27.47
2018-10-16T06:04:39.935Z,23.80
2018-10-16T06:09:43.411Z,19.43
2018-10-16T06:14:46.963Z,29.47
2018-10-16T06:19:50.411Z,25.60
2018-10-16T06:24:53.833Z,20.30
2018-10-16T06:29:57.235Z,30.27
2018-10-16T06:35:00.852Z,26.93
2018-10-16T06:40:04.535Z,26.57
2018-10-16T06:45:10.161Z,30.05
2018-10-16T06:50:13.640Z,25.27
2018-10-16T06:55:17.144Z,26.77
2018-10-16T07:00:20.640Z,27.60
2018-10-16T07:05:24.375Z,28.30
2018-10-16T07:10:27.780Z,26.10
2018-10-16T07:15:31.210Z,26.53
2018-10-16T07:20:34.637Z,21.07
2018-10-16T07:25:38.038Z,18.80
2018-10-16T07:30:41.435Z,20.80
2018-10-16T07:35:44.819Z,23.10
2018-10-16T07:40:48.515Z,21.50
2018-10-16T07:45:52.065Z,23.00
2018-10-16T07:50:55.515Z,22.10
2018-10-16T07:55:58.908Z,34.07
2018-10-16T08:01:02.364Z,30.07
2018-10-16T08:06:06.190Z,25.67
2018-10-16T08:11:09.722Z,31.73
2018-10-16T08:16:13.108Z,25.23
2018-10-16T08:21:16.534Z,26.40
2018-10-16T08:26:19.911Z,25.07
2018-10-16T08:31:23.291Z,23.83
2018-10-16T08:36:26.885Z,24.33
2018-10-16T08:42:43.078Z,23.60
2018-10-16T08:47:58.639Z,19.93
2018-10-16T08:53:02.360Z,17.00
2018-10-16T08:58:06.159Z,27.03
2018-10-16T09:03:09.549Z,19.07
2018-10-16T09:08:13.027Z,21.90
2018-10-16T09:13:16.436Z,27.77
2018-10-16T09:18:19.852Z,23.03
2018-10-16T09:23:23.235Z,21.53
2018-10-16T09:28:26.639Z,19.77
2018-10-16T09:33:30.079Z,23.63
2018-10-16T09:38:33.527Z,15.87
2018-10-16T09:43:37.924Z,20.23
2018-10-16T09:48:41.379Z,23.20
2018-10-16T09:53:44.810Z,28.47
2018-10-16T09:58:48.216Z,19.40
2018-10-16T10:03:51.686Z,17.20
2018-10-16T10:08:55.180Z,16.57
2018-10-16T10:13:58.612Z,16.63
2018-10-16T10:19:02.100Z,17.77
2018-10-16T10:24:05.572Z,18.30
2018-10-16T10:29:09.102Z,24.90
2018-10-16T10:34:12.556Z,21.90
2018-10-16T10:39:16.000Z,17.47
2018-10-16T10:44:19.507Z,14.33
2018-10-16T10:49:22.892Z,15.60
2018-10-16T10:54:26.299Z,17.67
2018-10-16T10:59:29.784Z,16.97
2018-10-16T11:04:33.223Z,17.43
2018-10-16T11:09:36.635Z,16.57
2018-10-16T11:14:40.019Z,25.55
2018-10-16T11:19:43.411Z,17.33
2018-10-16T11:24:46.788Z,20.93
2018-10-16T11:29:50.163Z,26.57
2018-10-16T11:34:53.599Z,19.93
2018-10-16T11:39:57.016Z,19.40
2018-10-16T11:45:00.553Z,14.90
2018-10-16T11:50:04.032Z,16.93
2018-10-16T11:55:07.929Z,12.87
2018-10-16T12:00:14.006Z,15.67
2018-10-16T12:05:17.460Z,29.50
2018-10-16T12:10:20.878Z,13.50
2018-10-16T12:15:24.261Z,21.27
2018-10-16T12:20:38.207Z,14.63
2018-10-16T12:25:41.709Z,20.43
2018-10-16T12:30:45.285Z,17.57
2018-10-16T12:35:48.687Z,20.63
2018-10-16T12:40:52.250Z,17.50
2018-10-16T12:45:56.272Z,15.07
2018-10-16T12:50:59.903Z,16.00
2018-10-16T12:56:03.371Z,16.70
2018-10-16T13:01:06.879Z,15.37
2018-10-16T13:06:13.349Z,19.67
2018-10-16T13:11:17.122Z,22.17
2018-10-16T13:16:20.563Z,12.87
2018-10-16T13:21:23.970Z,13.53
2018-10-16T13:26:27.444Z,18.87
2018-10-16T13:31:30.852Z,16.70
2018-10-16T13:36:34.232Z,14.63
2018-10-16T13:41:37.624Z,15.40
2018-10-16T13:46:41.090Z,23.17
2018-10-16T13:51:44.600Z,13.33
2018-10-16T13:56:48.070Z,22.17
2018-10-16T14:01:51.498Z,18.87
2018-10-16T14:06:55.023Z,20.73
2018-10-16T14:11:58.499Z,18.40
2018-10-16T14:17:01.923Z,16.90
2018-10-16T14:22:05.907Z,19.95
2018-10-16T14:27:09.308Z,16.47
2018-10-16T14:32:12.828Z,21.27
2018-10-16T14:37:16.189Z,16.83
2018-10-16T14:42:19.576Z,15.40
2018-10-16T14:47:23.027Z,19.20
2018-10-16T14:52:26.440Z,19.53
2018-10-16T14:57:29.833Z,18.53
2018-10-16T15:02:33.236Z,17.03
2018-10-16T15:07:36.770Z,23.47
2018-10-16T15:12:40.196Z,20.67
2018-10-16T15:17:43.586Z,26.27
2018-10-16T15:22:47.058Z,25.40
2018-10-16T15:27:50.567Z,19.77
2018-10-16T15:32:54.142Z,21.37
2018-10-16T15:37:57.559Z,22.00
2018-10-16T15:43:01.235Z,21.80
2018-10-16T15:48:04.992Z,24.83
2018-10-16T15:53:08.374Z,34.17
2018-10-16T15:58:11.873Z,25.20
2018-10-16T16:03:15.327Z,31.63
2018-10-16T16:08:18.709Z,42.13
2018-10-16T16:13:22.152Z,42.40
2018-10-16T16:18:25.597Z,34.90
2018-10-16T16:23:28.956Z,29.90
2018-10-16T16:28:32.390Z,32.60
2018-10-16T16:33:35.905Z,27.73
2018-10-16T16:38:39.475Z,25.03
2018-10-16T16:43:43.071Z,35.37
2018-10-16T16:48:46.500Z,38.90
2018-10-16T16:53:49.911Z,24.03
2018-10-16T16:58:53.311Z,27.10
2018-10-16T17:03:56.808Z,19.80
2018-10-16T17:09:00.260Z,24.23
2018-10-16T17:14:03.752Z,24.50
2018-10-16T17:19:07.612Z,29.17
2018-10-16T17:24:11.043Z,30.40
2018-10-16T17:29:14.431Z,35.47
2018-10-16T17:34:18.332Z,32.67
2018-10-16T17:39:21.758Z,36.60
2018-10-16T17:44:25.204Z,35.03
2018-10-16T17:49:28.696Z,38.03
2018-10-16T17:54:32.247Z,41.30
2018-10-16T17:59:35.725Z,45.57
2018-10-16T18:04:39.216Z,38.40
2018-10-16T18:09:42.880Z,43.30
2018-10-16T18:14:46.370Z,46.33
2018-10-16T18:19:49.820Z,51.27
2018-10-16T18:24:53.312Z,41.10
2018-10-16T18:29:56.829Z,49.70
2018-10-16T18:35:00.352Z,58.70
2018-10-16T18:40:03.929Z,69.33
2018-10-16T18:45:08.396Z,89.10
2018-10-16T18:50:13.120Z,84.20
2018-10-16T18:55:16.643Z,77.20
2018-10-16T19:00:20.530Z,72.33
2018-10-16T19:05:23.991Z,76.57
2018-10-16T19:10:27.424Z,67.80
2018-10-16T19:15:31.172Z,74.60
2018-10-16T19:20:34.619Z,84.77
2018-10-16T19:25:38.051Z,83.40
2018-10-16T19:30:41.443Z,85.20
2018-10-16T19:35:44.863Z,73.10
2018-10-16T19:40:48.328Z,73.87
2018-10-16T19:45:51.735Z,63.60
2018-10-16T19:50:55.207Z,52.63
2018-10-16T19:55:58.611Z,60.40
2018-10-16T20:01:01.980Z,61.00
2018-10-16T20:06:05.455Z,55.93
2018-10-16T20:11:08.913Z,50.20
2018-10-16T20:16:12.403Z,49.33
2018-10-16T20:21:15.787Z,52.97
2018-10-16T20:26:19.300Z,54.53
2018-10-16T20:31:22.732Z,46.07
2018-10-16T20:36:26.259Z,49.57
2018-10-16T20:41:29.623Z,44.65
2018-10-16T20:46:33.027Z,50.10
2018-10-16T20:51:37.371Z,54.83
2018-10-16T20:56:40.796Z,48.07
2018-10-16T21:01:44.188Z,44.87
2018-10-16T21:06:47.897Z,39.47
2018-10-16T21:11:51.025Z,37.03
2018-10-16T21:16:54.436Z,36.97
2018-10-16T21:21:57.828Z,41.77
2018-10-16T21:27:03.810Z,34.70
2018-10-16T21:32:07.862Z,32.27
2018-10-16T21:37:11.288Z,38.03
2018-10-16T21:42:14.698Z,32.20
2018-10-16T21:47:18.182Z,31.67
2018-10-16T21:52:21.732Z,35.03
2018-10-16T21:57:25.123Z,33.83
2018-10-16T22:02:34.058Z,34.37
2018-10-16T22:07:37.464Z,28.83
2018-10-16T22:12:40.860Z,28.70
2018-10-16T22:17:44.458Z,31.23
2018-10-16T22:22:47.969Z,33.20
2018-10-16T22:27:51.387Z,31.27
2018-10-16T22:32:54.751Z,27.40
2018-10-16T22:37:58.145Z,30.43
2018-10-16T22:43:01.574Z,35.00
2018-10-16T22:48:05.272Z,28.40
2018-10-16T22:53:08.723Z,26.63
2018-10-16T22:58:12.109Z,27.20
2018-10-16T23:03:15.508Z,27.37
2018-10-16T23:08:18.898Z,28.87
2018-10-16T23:13:22.279Z,26.50
2018-10-16T23:18:25.658Z,30.07
2018-10-16T23:23:29.074Z,31.90
2018-10-16T23:28:32.499Z,29.17
2018-10-16T23:33:35.895Z,28.23
2018-10-16T23:38:39.302Z,26.00
2018-10-16T23:43:42.734Z,31.23
2018-10-16T23:48:46.159Z,28.20
2018-10-16T23:53:49.586Z,25.70
2018-10-16T23:58:53.030Z,30.90
